sensor_id;sensor_type;location;lat;lon;timestamp;P1;durP1;ratioP1;P2;durP2;ratioP2
62037;SDS011;47991;42.974;12.082;2022-12-29T00:01:02;16.70;;;8.80;;
62037;SDS011;47991;42.974;12.082;2022-12-29T00:03:29;14.90;;;8.30;;
62037;SDS011;47991;42.974;12.082;2022-12-29T00:05:57;15.30;;;7.80;;
62037;SDS011;47991;42.974;12.082;2022-12-29T00:11:20;14.70;;;7.50;;
62037;SDS011;47991;42.974;12.082;2022-12-29T00:13:49;17.30;;;9.20;;
62037;SDS011;47991;42.974;12.082;2022-12-29T00:16:37;15.50;;;8.20;;
62037;SDS011;47991;42.974;12.082;2022-12-29T00:19:05;20.30;;;10.50;;
62037;SDS011;47991;42.974;12.082;2022-12-29T00:21:32;17.00;;;9.20;;
62037;SDS011;47991;42.974;12.082;2022-12-29T00:24:20;14.10;;;8.80;;
62037;SDS011;47991;42.974;12.082;2022-12-29T00:29:49;17.00;;;9.90;;
62037;SDS011;47991;42.974;12.082;2022-12-29T00:32:35;15.60;;;9.90;;
62037;SDS011;47991;42.974;12.082;2022-12-29T00:37:57;14.30;;;8.60;;
62037;SDS011;47991;42.974;12.082;2022-12-29T00:40:48;13.90;;;7.70;;
62037;SDS011;47991;42.974;12.082;2022-12-29T00:43:34;13.90;;;6.80;;
62037;SDS011;47991;42.974;12.082;2022-12-29T00:46:20;14.30;;;5.90;;
62037;SDS011;47991;42.974;12.082;2022-12-29T00:48:47;14.10;;;6.30;;
62037;SDS011;47991;42.974;12.082;2022-12-29T00:51:34;11.60;;;6.00;;
62037;SDS011;47991;42.974;12.082;2022-12-29T00:54:02;12.50;;;6.60;;
62037;SDS011;47991;42.974;12.082;2022-12-29T00:56:29;13.60;;;6.30;;
62037;SDS011;47991;42.974;12.082;2022-12-29T00:59:07;12.80;;;6.80;;
62037;SDS011;47991;42.974;12.082;2022-12-29T01:01:36;11.80;;;5.90;;
62037;SDS011;47991;42.974;12.082;2022-12-29T01:04:05;12.40;;;5.70;;
62037;SDS011;47991;42.974;12.082;2022-12-29T01:06:33;12.40;;;5.20;;
62037;SDS011;47991;42.974;12.082;2022-12-29T01:09:02;12.20;;;5.80;;
62037;SDS011;47991;42.974;12.082;2022-12-29T01:11:49;10.90;;;5.80;;
62037;SDS011;47991;42.974;12.082;2022-12-29T01:14:17;13.60;;;5.80;;
62037;SDS011;47991;42.974;12.082;2022-12-29T01:16:46;13.50;;;5.50;;
62037;SDS011;47991;42.974;12.082;2022-12-29T01:19:14;12.50;;;4.50;;
62037;SDS011;47991;42.974;12.082;2022-12-29T01:21:42;10.70;;;4.20;;
62037;SDS011;47991;42.974;12.082;2022-12-29T01:24:09;9.70;;;4.10;;
62037;SDS011;47991;42.974;12.082;2022-12-29T01:26:37;12.10;;;4.40;;
62037;SDS011;47991;42.974;12.082;2022-12-29T01:29:04;12.70;;;5.20;;
62037;SDS011;47991;42.974;12.082;2022-12-29T01:31:32;16.20;;;4.70;;
62037;SDS011;47991;42.974;12.082;2022-12-29T01:34:00;10.30;;;4.00;;
62037;SDS011;47991;42.974;12.082;2022-12-29T01:36:28;10.80;;;4.40;;
62037;SDS011;47991;42.974;12.082;2022-12-29T01:38:55;11.50;;;4.60;;
62037;SDS011;47991;42.974;12.082;2022-12-29T01:41:23;13.10;;;4.50;;
62037;SDS011;47991;42.974;12.082;2022-12-29T01:43:52;10.80;;;4.70;;
62037;SDS011;47991;42.974;12.082;2022-12-29T01:46:28;13.90;;;5.10;;
62037;SDS011;47991;42.974;12.082;2022-12-29T01:51:53;10.20;;;3.80;;
62037;SDS011;47991;42.974;12.082;2022-12-29T01:57:01;10.90;;;4.20;;
62037;SDS011;47991;42.974;12.082;2022-12-29T01:59:37;11.70;;;4.30;;
62037;SDS011;47991;42.974;12.082;2022-12-29T02:02:11;6.10;;;2.70;;
62037;SDS011;47991;42.974;12.082;2022-12-29T02:04:40;11.60;;;3.70;;
62037;SDS011;47991;42.974;12.082;2022-12-29T02:07:18;8.40;;;3.90;;
62037;SDS011;47991;42.974;12.082;2022-12-29T02:09:48;11.40;;;3.60;;
62037;SDS011;47991;42.974;12.082;2022-12-29T02:12:18;11.80;;;4.10;;
62037;SDS011;47991;42.974;12.082;2022-12-29T02:14:47;10.00;;;4.00;;
62037;SDS011;47991;42.974;12.082;2022-12-29T02:29:35;8.20;;;3.70;;
62037;SDS011;47991;42.974;12.082;2022-12-29T02:37:37;9.90;;;3.90;;
62037;SDS011;47991;42.974;12.082;2022-12-29T02:40:29;11.80;;;3.90;;
62037;SDS011;47991;42.974;12.082;2022-12-29T02:43:05;9.30;;;4.00;;
62037;SDS011;47991;42.974;12.082;2022-12-29T02:48:29;10.70;;;4.30;;
62037;SDS011;47991;42.974;12.082;2022-12-29T02:51:10;10.40;;;3.80;;
62037;SDS011;47991;42.974;12.082;2022-12-29T02:53:50;12.50;;;4.10;;
62037;SDS011;47991;42.974;12.082;2022-12-29T02:56:39;11.80;;;4.70;;
62037;SDS011;47991;42.974;12.082;2022-12-29T02:59:07;10.10;;;4.10;;
62037;SDS011;47991;42.974;12.082;2022-12-29T03:05:04;11.60;;;4.90;;
62037;SDS011;47991;42.974;12.082;2022-12-29T03:07:46;11.20;;;5.10;;
62037;SDS011;47991;42.974;12.082;2022-12-29T03:18:56;11.90;;;6.10;;
62037;SDS011;47991;42.974;12.082;2022-12-29T03:24:26;14.30;;;7.30;;
62037;SDS011;47991;42.974;12.082;2022-12-29T03:26:58;15.30;;;7.40;;
62037;SDS011;47991;42.974;12.082;2022-12-29T03:29:31;15.90;;;8.50;;
62037;SDS011;47991;42.974;12.082;2022-12-29T03:32:03;13.40;;;6.80;;
62037;SDS011;47991;42.974;12.082;2022-12-29T03:34:33;12.80;;;7.70;;
62037;SDS011;47991;42.974;12.082;2022-12-29T03:37:08;11.70;;;7.20;;
62037;SDS011;47991;42.974;12.082;2022-12-29T03:39:40;12.10;;;8.00;;
62037;SDS011;47991;42.974;12.082;2022-12-29T03:42:10;14.10;;;8.20;;
62037;SDS011;47991;42.974;12.082;2022-12-29T03:44:42;13.70;;;7.90;;
62037;SDS011;47991;42.974;12.082;2022-12-29T03:47:13;14.10;;;8.30;;
62037;SDS011;47991;42.974;12.082;2022-12-29T03:49:43;13.00;;;7.00;;
62037;SDS011;47991;42.974;12.082;2022-12-29T03:52:10;14.90;;;8.10;;
62037;SDS011;47991;42.974;12.082;2022-12-29T03:54:41;14.30;;;7.20;;
62037;SDS011;47991;42.974;12.082;2022-12-29T03:57:10;12.80;;;6.40;;
62037;SDS011;47991;42.974;12.082;2022-12-29T03:59:58;13.30;;;6.90;;
62037;SDS011;47991;42.974;12.082;2022-12-29T04:02:26;11.50;;;6.00;;
62037;SDS011;47991;42.974;12.082;2022-12-29T04:04:54;13.10;;;6.30;;
62037;SDS011;47991;42.974;12.082;2022-12-29T04:07:21;14.20;;;7.50;;
62037;SDS011;47991;42.974;12.082;2022-12-29T04:09:50;14.80;;;7.90;;
62037;SDS011;47991;42.974;12.082;2022-12-29T04:12:22;11.50;;;6.60;;
62037;SDS011;47991;42.974;12.082;2022-12-29T04:14:49;15.20;;;7.80;;
62037;SDS011;47991;42.974;12.082;2022-12-29T04:17:18;12.70;;;6.80;;
62037;SDS011;47991;42.974;12.082;2022-12-29T04:19:47;14.60;;;7.30;;
62037;SDS011;47991;42.974;12.082;2022-12-29T04:22:15;13.30;;;7.60;;
62037;SDS011;47991;42.974;12.082;2022-12-29T04:24:42;12.80;;;6.30;;
62037;SDS011;47991;42.974;12.082;2022-12-29T04:27:11;12.50;;;7.10;;
62037;SDS011;47991;42.974;12.082;2022-12-29T04:29:55;15.50;;;7.80;;
62037;SDS011;47991;42.974;12.082;2022-12-29T04:32:35;15.70;;;6.80;;
62037;SDS011;47991;42.974;12.082;2022-12-29T04:35:02;12.00;;;6.00;;
62037;SDS011;47991;42.974;12.082;2022-12-29T04:37:30;10.90;;;5.80;;
62037;SDS011;47991;42.974;12.082;2022-12-29T04:39:58;13.40;;;6.90;;
62037;SDS011;47991;42.974;12.082;2022-12-29T04:42:25;13.00;;;6.30;;
62037;SDS011;47991;42.974;12.082;2022-12-29T04:44:53;12.30;;;5.90;;
62037;SDS011;47991;42.974;12.082;2022-12-29T04:47:36;11.20;;;6.00;;
62037;SDS011;47991;42.974;12.082;2022-12-29T04:50:33;11.70;;;5.00;;
62037;SDS011;47991;42.974;12.082;2022-12-29T04:53:23;9.20;;;4.30;;
62037;SDS011;47991;42.974;12.082;2022-12-29T04:55:53;12.30;;;4.90;;
62037;SDS011;47991;42.974;12.082;2022-12-29T04:58:21;12.20;;;5.70;;
62037;SDS011;47991;42.974;12.082;2022-12-29T05:00:50;8.60;;;4.80;;
62037;SDS011;47991;42.974;12.082;2022-12-29T05:03:18;9.50;;;4.60;;
62037;SDS011;47991;42.974;12.082;2022-12-29T05:05:46;12.70;;;5.30;;
62037;SDS011;47991;42.974;12.082;2022-12-29T05:08:14;11.10;;;4.60;;
62037;SDS011;47991;42.974;12.082;2022-12-29T05:10:44;15.90;;;5.10;;
62037;SDS011;47991;42.974;12.082;2022-12-29T05:13:13;11.00;;;4.30;;
62037;SDS011;47991;42.974;12.082;2022-12-29T05:15:40;10.30;;;4.30;;
62037;SDS011;47991;42.974;12.082;2022-12-29T05:18:08;11.20;;;4.30;;
62037;SDS011;47991;42.974;12.082;2022-12-29T05:20:35;10.20;;;4.20;;
62037;SDS011;47991;42.974;12.082;2022-12-29T05:23:03;9.10;;;3.60;;
62037;SDS011;47991;42.974;12.082;2022-12-29T05:25:31;9.60;;;4.00;;
62037;SDS011;47991;42.974;12.082;2022-12-29T05:28:18;9.30;;;4.30;;
62037;SDS011;47991;42.974;12.082;2022-12-29T05:30:52;11.30;;;4.20;;
62037;SDS011;47991;42.974;12.082;2022-12-29T05:33:19;11.70;;;3.40;;
62037;SDS011;47991;42.974;12.082;2022-12-29T05:35:48;10.30;;;4.70;;
62037;SDS011;47991;42.974;12.082;2022-12-29T05:38:16;9.40;;;4.20;;
62037;SDS011;47991;42.974;12.082;2022-12-29T05:40:44;10.70;;;4.60;;
62037;SDS011;47991;42.974;12.082;2022-12-29T05:43:37;12.30;;;5.10;;
62037;SDS011;47991;42.974;12.082;2022-12-29T05:49:18;10.10;;;4.70;;
62037;SDS011;47991;42.974;12.082;2022-12-29T05:52:05;10.10;;;4.40;;
62037;SDS011;47991;42.974;12.082;2022-12-29T05:54:34;12.40;;;4.30;;
62037;SDS011;47991;42.974;12.082;2022-12-29T05:57:02;11.00;;;5.00;;
62037;SDS011;47991;42.974;12.082;2022-12-29T05:59:31;13.40;;;4.70;;
62037;SDS011;47991;42.974;12.082;2022-12-29T06:01:58;9.30;;;4.10;;
62037;SDS011;47991;42.974;12.082;2022-12-29T06:04:25;8.90;;;4.40;;
62037;SDS011;47991;42.974;12.082;2022-12-29T06:06:53;11.00;;;4.30;;
62037;SDS011;47991;42.974;12.082;2022-12-29T06:09:26;9.00;;;4.30;;
62037;SDS011;47991;42.974;12.082;2022-12-29T06:11:54;8.70;;;3.80;;
62037;SDS011;47991;42.974;12.082;2022-12-29T06:14:21;9.50;;;4.10;;
62037;SDS011;47991;42.974;12.082;2022-12-29T06:16:49;8.40;;;3.70;;
62037;SDS011;47991;42.974;12.082;2022-12-29T06:19:17;9.00;;;3.80;;
62037;SDS011;47991;42.974;12.082;2022-12-29T06:21:45;8.30;;;3.20;;
62037;SDS011;47991;42.974;12.082;2022-12-29T06:24:12;10.30;;;3.30;;
62037;SDS011;47991;42.974;12.082;2022-12-29T06:26:40;8.20;;;3.50;;
62037;SDS011;47991;42.974;12.082;2022-12-29T06:29:07;7.20;;;3.70;;
62037;SDS011;47991;42.974;12.082;2022-12-29T06:31:35;9.00;;;3.20;;
62037;SDS011;47991;42.974;12.082;2022-12-29T06:34:03;6.30;;;3.10;;
62037;SDS011;47991;42.974;12.082;2022-12-29T06:36:30;5.70;;;3.00;;
62037;SDS011;47991;42.974;12.082;2022-12-29T06:38:58;7.60;;;3.70;;
62037;SDS011;47991;42.974;12.082;2022-12-29T06:41:25;12.80;;;3.90;;
62037;SDS011;47991;42.974;12.082;2022-12-29T06:44:12;8.60;;;3.70;;
62037;SDS011;47991;42.974;12.082;2022-12-29T06:46:55;8.70;;;3.90;;
62037;SDS011;47991;42.974;12.082;2022-12-29T06:49:24;7.50;;;3.80;;
62037;SDS011;47991;42.974;12.082;2022-12-29T06:51:51;7.40;;;3.70;;
62037;SDS011;47991;42.974;12.082;2022-12-29T06:54:20;7.70;;;3.80;;
62037;SDS011;47991;42.974;12.082;2022-12-29T06:56:47;9.10;;;4.30;;
62037;SDS011;47991;42.974;12.082;2022-12-29T06:59:15;9.60;;;3.90;;
62037;SDS011;47991;42.974;12.082;2022-12-29T07:01:42;9.60;;;4.60;;
62037;SDS011;47991;42.974;12.082;2022-12-29T07:04:09;9.10;;;4.40;;
62037;SDS011;47991;42.974;12.082;2022-12-29T07:06:37;10.60;;;4.40;;
62037;SDS011;47991;42.974;12.082;2022-12-29T07:09:04;9.10;;;4.40;;
62037;SDS011;47991;42.974;12.082;2022-12-29T07:11:32;11.80;;;5.10;;
62037;SDS011;47991;42.974;12.082;2022-12-29T07:14:00;10.30;;;4.60;;
62037;SDS011;47991;42.974;12.082;2022-12-29T07:16:28;12.80;;;5.00;;
62037;SDS011;47991;42.974;12.082;2022-12-29T07:18:56;12.30;;;5.30;;
62037;SDS011;47991;42.974;12.082;2022-12-29T07:21:25;8.60;;;4.20;;
62037;SDS011;47991;42.974;12.082;2022-12-29T07:23:53;10.10;;;4.20;;
62037;SDS011;47991;42.974;12.082;2022-12-29T07:26:21;10.00;;;4.30;;
62037;SDS011;47991;42.974;12.082;2022-12-29T07:28:49;10.40;;;4.70;;
62037;SDS011;47991;42.974;12.082;2022-12-29T07:31:17;7.30;;;3.70;;
62037;SDS011;47991;42.974;12.082;2022-12-29T07:33:46;12.10;;;5.10;;
62037;SDS011;47991;42.974;12.082;2022-12-29T07:36:15;13.10;;;5.00;;
62037;SDS011;47991;42.974;12.082;2022-12-29T07:38:43;11.20;;;4.90;;
62037;SDS011;47991;42.974;12.082;2022-12-29T07:41:11;8.20;;;3.60;;
62037;SDS011;47991;42.974;12.082;2022-12-29T07:43:38;8.50;;;4.20;;
62037;SDS011;47991;42.974;12.082;2022-12-29T07:46:31;8.80;;;4.50;;
62037;SDS011;47991;42.974;12.082;2022-12-29T07:48:59;10.20;;;4.40;;
62037;SDS011;47991;42.974;12.082;2022-12-29T07:51:27;9.80;;;4.10;;
62037;SDS011;47991;42.974;12.082;2022-12-29T07:53:54;9.60;;;4.10;;
62037;SDS011;47991;42.974;12.082;2022-12-29T07:56:21;12.30;;;4.10;;
62037;SDS011;47991;42.974;12.082;2022-12-29T07:58:48;9.10;;;4.20;;
62037;SDS011;47991;42.974;12.082;2022-12-29T08:01:15;11.50;;;4.50;;
62037;SDS011;47991;42.974;12.082;2022-12-29T08:03:42;10.30;;;4.40;;
62037;SDS011;47991;42.974;12.082;2022-12-29T08:06:10;10.90;;;4.40;;
62037;SDS011;47991;42.974;12.082;2022-12-29T08:08:38;11.70;;;5.70;;
62037;SDS011;47991;42.974;12.082;2022-12-29T08:11:05;10.00;;;5.70;;
62037;SDS011;47991;42.974;12.082;2022-12-29T08:13:33;12.30;;;5.70;;
62037;SDS011;47991;42.974;12.082;2022-12-29T08:16:01;12.10;;;6.00;;
62037;SDS011;47991;42.974;12.082;2022-12-29T08:18:28;9.20;;;4.60;;
62037;SDS011;47991;42.974;12.082;2022-12-29T08:20:55;10.60;;;4.90;;
62037;SDS011;47991;42.974;12.082;2022-12-29T08:23:27;12.30;;;5.40;;
62037;SDS011;47991;42.974;12.082;2022-12-29T08:26:02;10.40;;;4.60;;
62037;SDS011;47991;42.974;12.082;2022-12-29T08:28:31;11.50;;;5.80;;
62037;SDS011;47991;42.974;12.082;2022-12-29T08:31:00;12.60;;;5.50;;
62037;SDS011;47991;42.974;12.082;2022-12-29T08:33:28;12.40;;;5.30;;
62037;SDS011;47991;42.974;12.082;2022-12-29T08:36:00;9.40;;;4.80;;
62037;SDS011;47991;42.974;12.082;2022-12-29T08:38:29;11.30;;;4.70;;
62037;SDS011;47991;42.974;12.082;2022-12-29T08:40:57;13.10;;;5.60;;
62037;SDS011;47991;42.974;12.082;2022-12-29T08:43:26;9.50;;;4.40;;
62037;SDS011;47991;42.974;12.082;2022-12-29T08:45:54;11.30;;;4.30;;
62037;SDS011;47991;42.974;12.082;2022-12-29T08:48:22;12.10;;;5.00;;
62037;SDS011;47991;42.974;12.082;2022-12-29T08:50:50;10.90;;;4.30;;
62037;SDS011;47991;42.974;12.082;2022-12-29T08:53:17;12.60;;;4.30;;
62037;SDS011;47991;42.974;12.082;2022-12-29T08:55:46;8.10;;;4.20;;
62037;SDS011;47991;42.974;12.082;2022-12-29T08:58:14;10.00;;;4.20;;
62037;SDS011;47991;42.974;12.082;2022-12-29T09:00:44;9.00;;;3.50;;
62037;SDS011;47991;42.974;12.082;2022-12-29T09:03:12;13.50;;;4.10;;
62037;SDS011;47991;42.974;12.082;2022-12-29T09:05:39;10.20;;;4.30;;
62037;SDS011;47991;42.974;12.082;2022-12-29T09:08:06;11.50;;;3.90;;
62037;SDS011;47991;42.974;12.082;2022-12-29T09:10:35;9.70;;;4.10;;
62037;SDS011;47991;42.974;12.082;2022-12-29T09:13:02;9.80;;;4.10;;
62037;SDS011;47991;42.974;12.082;2022-12-29T09:15:30;10.00;;;4.20;;
62037;SDS011;47991;42.974;12.082;2022-12-29T09:17:57;9.00;;;4.10;;
62037;SDS011;47991;42.974;12.082;2022-12-29T09:20:25;8.20;;;3.90;;
62037;SDS011;47991;42.974;12.082;2022-12-29T09:22:52;8.80;;;4.30;;
62037;SDS011;47991;42.974;12.082;2022-12-29T09:25:20;9.90;;;3.70;;
62037;SDS011;47991;42.974;12.082;2022-12-29T09:27:51;11.40;;;4.30;;
62037;SDS011;47991;42.974;12.082;2022-12-29T09:30:20;8.20;;;3.70;;
62037;SDS011;47991;42.974;12.082;2022-12-29T09:32:49;13.10;;;4.60;;
62037;SDS011;47991;42.974;12.082;2022-12-29T09:35:18;12.40;;;4.20;;
62037;SDS011;47991;42.974;12.082;2022-12-29T09:37:46;10.70;;;4.20;;
62037;SDS011;47991;42.974;12.082;2022-12-29T09:40:27;10.30;;;4.30;;
62037;SDS011;47991;42.974;12.082;2022-12-29T09:46:00;11.30;;;4.40;;
62037;SDS011;47991;42.974;12.082;2022-12-29T09:51:23;9.00;;;4.10;;
62037;SDS011;47991;42.974;12.082;2022-12-29T09:53:54;8.40;;;3.70;;
62037;SDS011;47991;42.974;12.082;2022-12-29T09:56:25;11.10;;;4.40;;
62037;SDS011;47991;42.974;12.082;2022-12-29T09:59:02;8.50;;;4.30;;
62037;SDS011;47991;42.974;12.082;2022-12-29T10:01:51;7.40;;;3.80;;
62037;SDS011;47991;42.974;12.082;2022-12-29T10:04:27;7.70;;;3.40;;
62037;SDS011;47991;42.974;12.082;2022-12-29T10:07:01;6.90;;;3.20;;
62037;SDS011;47991;42.974;12.082;2022-12-29T10:09:39;7.00;;;3.50;;
62037;SDS011;47991;42.974;12.082;2022-12-29T10:12:26;10.10;;;3.50;;
62037;SDS011;47991;42.974;12.082;2022-12-29T10:15:04;8.60;;;4.00;;
62037;SDS011;47991;42.974;12.082;2022-12-29T10:23:28;8.20;;;3.80;;
62037;SDS011;47991;42.974;12.082;2022-12-29T10:26:12;8.20;;;3.40;;
62037;SDS011;47991;42.974;12.082;2022-12-29T10:28:44;8.40;;;3.60;;
62037;SDS011;47991;42.974;12.082;2022-12-29T10:31:16;6.40;;;3.10;;
62037;SDS011;47991;42.974;12.082;2022-12-29T10:33:53;8.00;;;3.50;;
62037;SDS011;47991;42.974;12.082;2022-12-29T10:36:34;8.20;;;3.40;;
62037;SDS011;47991;42.974;12.082;2022-12-29T10:42:09;9.00;;;3.20;;
62037;SDS011;47991;42.974;12.082;2022-12-29T10:44:44;7.20;;;3.20;;
62037;SDS011;47991;42.974;12.082;2022-12-29T10:47:14;9.40;;;3.50;;
62037;SDS011;47991;42.974;12.082;2022-12-29T10:49:50;8.50;;;3.00;;
62037;SDS011;47991;42.974;12.082;2022-12-29T10:52:18;8.80;;;2.90;;
62037;SDS011;47991;42.974;12.082;2022-12-29T10:57:28;8.20;;;3.20;;
62037;SDS011;47991;42.974;12.082;2022-12-29T11:00:16;7.50;;;3.00;;
62037;SDS011;47991;42.974;12.082;2022-12-29T11:05:35;7.60;;;3.50;;
62037;SDS011;47991;42.974;12.082;2022-12-29T11:08:22;9.40;;;3.70;;
62037;SDS011;47991;42.974;12.082;2022-12-29T11:11:03;11.90;;;4.10;;
62037;SDS011;47991;42.974;12.082;2022-12-29T11:13:33;7.70;;;3.90;;
62037;SDS011;47991;42.974;12.082;2022-12-29T11:16:16;8.60;;;3.60;;
62037;SDS011;47991;42.974;12.082;2022-12-29T11:19:01;8.40;;;3.40;;
62037;SDS011;47991;42.974;12.082;2022-12-29T11:21:36;9.10;;;3.50;;
62037;SDS011;47991;42.974;12.082;2022-12-29T11:24:18;7.80;;;3.40;;
62037;SDS011;47991;42.974;12.082;2022-12-29T11:26:50;8.60;;;3.50;;
62037;SDS011;47991;42.974;12.082;2022-12-29T11:29:25;8.40;;;3.50;;
62037;SDS011;47991;42.974;12.082;2022-12-29T11:31:55;12.10;;;3.40;;
62037;SDS011;47991;42.974;12.082;2022-12-29T11:34:26;8.50;;;3.40;;
62037;SDS011;47991;42.974;12.082;2022-12-29T11:39:41;9.00;;;3.80;;
62037;SDS011;47991;42.974;12.082;2022-12-29T11:42:21;7.30;;;2.80;;
62037;SDS011;47991;42.974;12.082;2022-12-29T11:44:57;8.80;;;3.40;;
62037;SDS011;47991;42.974;12.082;2022-12-29T11:47:33;10.30;;;3.30;;
62037;SDS011;47991;42.974;12.082;2022-12-29T11:50:04;8.10;;;3.70;;
62037;SDS011;47991;42.974;12.082;2022-12-29T11:52:35;7.30;;;3.50;;
62037;SDS011;47991;42.974;12.082;2022-12-29T11:55:06;7.30;;;3.20;;
62037;SDS011;47991;42.974;12.082;2022-12-29T11:57:45;8.00;;;3.20;;
62037;SDS011;47991;42.974;12.082;2022-12-29T12:00:14;8.90;;;3.40;;
62037;SDS011;47991;42.974;12.082;2022-12-29T12:03:11;8.40;;;2.90;;
62037;SDS011;47991;42.974;12.082;2022-12-29T12:05:54;7.20;;;3.20;;
62037;SDS011;47991;42.974;12.082;2022-12-29T12:08:37;10.70;;;3.80;;
62037;SDS011;47991;42.974;12.082;2022-12-29T12:16:37;10.40;;;3.20;;
62037;SDS011;47991;42.974;12.082;2022-12-29T12:19:13;8.90;;;2.60;;
62037;SDS011;47991;42.974;12.082;2022-12-29T12:22:45;6.80;;;2.60;;
62037;SDS011;47991;42.974;12.082;2022-12-29T12:28:13;6.30;;;2.60;;
62037;SDS011;47991;42.974;12.082;2022-12-29T12:30:41;6.20;;;2.10;;
62037;SDS011;47991;42.974;12.082;2022-12-29T12:33:15;8.40;;;2.40;;
62037;SDS011;47991;42.974;12.082;2022-12-29T12:36:07;7.10;;;2.50;;
62037;SDS011;47991;42.974;12.082;2022-12-29T12:39:02;7.60;;;2.90;;
62037;SDS011;47991;42.974;12.082;2022-12-29T12:41:57;6.60;;;2.80;;
62037;SDS011;47991;42.974;12.082;2022-12-29T12:44:36;8.80;;;3.50;;
62037;SDS011;47991;42.974;12.082;2022-12-29T12:47:23;6.90;;;2.60;;
62037;SDS011;47991;42.974;12.082;2022-12-29T12:50:02;7.00;;;2.90;;
62037;SDS011;47991;42.974;12.082;2022-12-29T12:59:03;7.90;;;2.90;;
62037;SDS011;47991;42.974;12.082;2022-12-29T13:07:37;6.70;;;2.40;;
62037;SDS011;47991;42.974;12.082;2022-12-29T13:16:00;8.00;;;2.60;;
62037;SDS011;47991;42.974;12.082;2022-12-29T13:21:53;6.00;;;2.50;;
62037;SDS011;47991;42.974;12.082;2022-12-29T13:24:36;8.40;;;2.50;;
62037;SDS011;47991;42.974;12.082;2022-12-29T13:30:33;9.00;;;2.40;;
62037;SDS011;47991;42.974;12.082;2022-12-29T13:41:37;8.20;;;2.30;;
62037;SDS011;47991;42.974;12.082;2022-12-29T13:44:14;7.90;;;2.30;;
62037;SDS011;47991;42.974;12.082;2022-12-29T13:46:45;7.50;;;2.20;;
62037;SDS011;47991;42.974;12.082;2022-12-29T13:49:19;6.80;;;2.40;;
62037;SDS011;47991;42.974;12.082;2022-12-29T13:51:49;7.40;;;2.10;;
62037;SDS011;47991;42.974;12.082;2022-12-29T13:57:18;6.20;;;2.10;;
62037;SDS011;47991;42.974;12.082;2022-12-29T14:00:14;5.50;;;2.20;;
62037;SDS011;47991;42.974;12.082;2022-12-29T14:05:33;6.60;;;2.30;;
62037;SDS011;47991;42.974;12.082;2022-12-29T14:08:01;8.40;;;2.30;;
62037;SDS011;47991;42.974;12.082;2022-12-29T14:10:32;7.10;;;2.00;;
62037;SDS011;47991;42.974;12.082;2022-12-29T14:13:22;7.30;;;2.10;;
62037;SDS011;47991;42.974;12.082;2022-12-29T14:15:55;5.50;;;2.00;;
62037;SDS011;47991;42.974;12.082;2022-12-29T14:18:25;5.70;;;2.30;;
62037;SDS011;47991;42.974;12.082;2022-12-29T14:20:57;4.70;;;2.10;;
62037;SDS011;47991;42.974;12.082;2022-12-29T14:23:29;7.40;;;2.20;;
62037;SDS011;47991;42.974;12.082;2022-12-29T14:28:35;6.00;;;2.10;;
62037;SDS011;47991;42.974;12.082;2022-12-29T14:31:05;7.50;;;2.40;;
62037;SDS011;47991;42.974;12.082;2022-12-29T14:34:44;5.20;;;1.90;;
62037;SDS011;47991;42.974;12.082;2022-12-29T14:36:40;4.90;;;1.70;;
62037;SDS011;47991;42.974;12.082;2022-12-29T14:39:29;6.30;;;1.80;;
62037;SDS011;47991;42.974;12.082;2022-12-29T14:42:05;5.70;;;2.00;;
62037;SDS011;47991;42.974;12.082;2022-12-29T14:44:33;4.10;;;2.00;;
62037;SDS011;47991;42.974;12.082;2022-12-29T14:47:04;8.10;;;2.70;;
62037;SDS011;47991;42.974;12.082;2022-12-29T14:49:40;8.60;;;2.30;;
62037;SDS011;47991;42.974;12.082;2022-12-29T14:52:18;4.40;;;2.00;;
62037;SDS011;47991;42.974;12.082;2022-12-29T14:54:58;13.30;;;2.60;;
62037;SDS011;47991;42.974;12.082;2022-12-29T14:57:48;4.70;;;2.00;;
62037;SDS011;47991;42.974;12.082;2022-12-29T15:00:21;5.40;;;1.90;;
62037;SDS011;47991;42.974;12.082;2022-12-29T15:03:14;6.90;;;2.10;;
62037;SDS011;47991;42.974;12.082;2022-12-29T15:08:18;6.80;;;2.40;;
62037;SDS011;47991;42.974;12.082;2022-12-29T15:13:25;8.00;;;2.50;;
62037;SDS011;47991;42.974;12.082;2022-12-29T15:16:01;5.70;;;1.90;;
62037;SDS011;47991;42.974;12.082;2022-12-29T15:18:31;6.00;;;2.20;;
62037;SDS011;47991;42.974;12.082;2022-12-29T15:21:00;9.40;;;2.40;;
62037;SDS011;47991;42.974;12.082;2022-12-29T15:23:33;5.90;;;1.90;;
62037;SDS011;47991;42.974;12.082;2022-12-29T15:26:05;5.90;;;2.10;;
62037;SDS011;47991;42.974;12.082;2022-12-29T15:28:40;6.90;;;2.70;;
62037;SDS011;47991;42.974;12.082;2022-12-29T15:31:14;6.80;;;2.10;;
62037;SDS011;47991;42.974;12.082;2022-12-29T15:33:47;6.30;;;2.20;;
62037;SDS011;47991;42.974;12.082;2022-12-29T15:38:51;4.80;;;2.30;;
62037;SDS011;47991;42.974;12.082;2022-12-29T15:44:40;8.30;;;2.30;;
62037;SDS011;47991;42.974;12.082;2022-12-29T15:47:16;5.70;;;2.20;;
62037;SDS011;47991;42.974;12.082;2022-12-29T15:49:47;8.90;;;2.80;;
62037;SDS011;47991;42.974;12.082;2022-12-29T15:52:28;6.70;;;2.20;;
62037;SDS011;47991;42.974;12.082;2022-12-29T15:54:59;6.60;;;2.20;;
62037;SDS011;47991;42.974;12.082;2022-12-29T15:57:29;6.10;;;2.60;;
62037;SDS011;47991;42.974;12.082;2022-12-29T16:00:17;5.70;;;2.20;;
62037;SDS011;47991;42.974;12.082;2022-12-29T16:02:49;8.50;;;2.70;;
62037;SDS011;47991;42.974;12.082;2022-12-29T16:05:17;6.60;;;2.50;;
62037;SDS011;47991;42.974;12.082;2022-12-29T16:07:56;5.50;;;2.20;;
62037;SDS011;47991;42.974;12.082;2022-12-29T16:10:27;11.30;;;2.90;;
62037;SDS011;47991;42.974;12.082;2022-12-29T16:13:03;6.40;;;2.50;;
62037;SDS011;47991;42.974;12.082;2022-12-29T16:15:37;5.30;;;2.30;;
62037;SDS011;47991;42.974;12.082;2022-12-29T16:18:05;7.60;;;3.00;;
62037;SDS011;47991;42.974;12.082;2022-12-29T16:20:39;10.20;;;2.80;;
62037;SDS011;47991;42.974;12.082;2022-12-29T16:23:18;10.30;;;3.10;;
62037;SDS011;47991;42.974;12.082;2022-12-29T16:25:50;9.20;;;2.70;;
62037;SDS011;47991;42.974;12.082;2022-12-29T16:28:22;5.60;;;2.30;;
62037;SDS011;47991;42.974;12.082;2022-12-29T16:33:46;5.80;;;2.30;;
62037;SDS011;47991;42.974;12.082;2022-12-29T16:42:00;7.10;;;2.30;;
62037;SDS011;47991;42.974;12.082;2022-12-29T16:44:48;6.30;;;2.20;;
62037;SDS011;47991;42.974;12.082;2022-12-29T16:47:19;8.40;;;2.60;;
62037;SDS011;47991;42.974;12.082;2022-12-29T16:49:49;6.60;;;2.50;;
62037;SDS011;47991;42.974;12.082;2022-12-29T16:52:20;9.00;;;2.90;;
62037;SDS011;47991;42.974;12.082;2022-12-29T16:55:01;8.00;;;2.50;;
62037;SDS011;47991;42.974;12.082;2022-12-29T16:57:31;6.90;;;2.50;;
62037;SDS011;47991;42.974;12.082;2022-12-29T17:00:04;5.40;;;2.40;;
62037;SDS011;47991;42.974;12.082;2022-12-29T17:02:34;7.90;;;2.30;;
62037;SDS011;47991;42.974;12.082;2022-12-29T17:05:15;5.90;;;2.20;;
62037;SDS011;47991;42.974;12.082;2022-12-29T17:07:44;6.70;;;2.30;;
62037;SDS011;47991;42.974;12.082;2022-12-29T17:10:12;6.80;;;2.10;;
62037;SDS011;47991;42.974;12.082;2022-12-29T17:12:42;7.30;;;2.60;;
62037;SDS011;47991;42.974;12.082;2022-12-29T17:15:14;3.70;;;1.60;;
62037;SDS011;47991;42.974;12.082;2022-12-29T17:17:53;6.70;;;2.30;;
62037;SDS011;47991;42.974;12.082;2022-12-29T17:22:51;8.80;;;2.50;;
62037;SDS011;47991;42.974;12.082;2022-12-29T17:25:21;7.20;;;2.70;;
62037;SDS011;47991;42.974;12.082;2022-12-29T17:27:49;7.30;;;2.30;;
62037;SDS011;47991;42.974;12.082;2022-12-29T17:30:23;6.40;;;2.60;;